x

Halibut Bank (46146) Wave Buoy

4:00 - Sun 3rd May 2015 All times are PDT. -7 hours from GMT.

  • Sig Wave height 1.0ft
  • Peak Period 3s
  • Wind
    11mph, 13mph gusts
  • Sea Temp 52°f
  • Aire Temp 52°f
  • Sea Pressure 1016.3mb
  • Halibut Bank
  • Halibut Bank

More Historic Weather Station data

Upgrade to MSW Pro to gain access to the past 30 days of data for over 8000 Wavebouys and Weather Stations around the globe.

Join Pro

Comparision Forecast

View Surf forecast
   
dom 05/03 4:00 1ft 3s 11 13 mph 1016.3mb 52f 52f
3:00 1ft 3s 11 13 mph 1016.4mb 52f 52f
2:00 1ft 3s 9
mph
1016.5mb 52f 52f
1:00 0.7ft 2s 13 16 mph 1016.3mb 52f 53f
12:00 0.7ft 2s 11 13 mph 1016.7mb 53f 53f
sáb 05/02 11:00 1ft 2s 13 16 mph 1016.7mb 52f 54f
10:00 0.7ft 2s 11 13 mph 1016.7mb 53f 54f
9:00 1ft 3s 11 13 mph 1016.4mb 51f 54f
8:00 0.7ft 2s 11 13 mph 1016.1mb 52f 54f
7:00 0.7ft 3s 11
mph
1016.4mb 52f 54f
6:00 0.7ft 3s 11
mph
1016.8mb 52f 54f
5:00 1ft 3s 9 11 mph 1017.4mb 52f 54f
4:00 1ft 3s 9
mph
1017.9mb 52f 53f
3:00 1.3ft 4s 9
mph
1018.6mb 52f 53f
2:00 1.6ft 4s 11 13 mph 1019.1mb 51f 51f
1:00 2ft 4s 13
mph
1019.6mb 51f 51f
12:00 2.5ft 4s 16 18 mph 1019.9mb 51f 50f
11:00 2.5ft 4s 16 18 mph 1020.2mb 51f 49f
10:00 2ft 4s 16 18 mph 1020mb 51f 49f
9:00 2.5ft 4s 13 18 mph 1019.8mb 51f 49f
8:00 2.5ft 4s 18 22 mph 1019.3mb 51f 48f
7:00 2.5ft 4s 18 22 mph 1018.9mb 51f 48f
6:00 2.5ft 4s 18 22 mph 1018.2mb 51f 49f
5:00 2.5ft 4s 18 20 mph 1017.9mb 52f 49f
4:00 2ft 4s 20 22 mph 1017.6mb 52f 49f
3:00 2.5ft 4s 16 22 mph 1017.8mb 52f 50f
2:00 3ft 4s 20 25 mph 1017.9mb 52f 50f
1:00 3ft 5s 25 29 mph 1017.7mb 52f 51f
12:00 3ft 4s 22 27 mph 1017.6mb 52f 52f
vie 05/01 11:00 2.5ft 4s 20 25 mph 1017.7mb 52f 53f
9:00 2.5ft 4s 13 16 mph 1017.1mb 53f 54f
8:00 3ft 4s 18 22 mph 1016.4mb 53f 54f
7:00 2.5ft 4s 18 25 mph 1016.2mb 53f 54f
6:00 1.3ft 3s 16 18 mph 1016.5mb 54f 55f
5:00 1ft 2s 13 18 mph 1016.6mb 54f 55f
4:00 0.3ft 2s 11 13 mph 1016.7mb 55f 55f
3:00 0.3ft 3s 9 11 mph 1017mb 55f 55f
2:00 0.3ft 3s 7 9 mph 1017.3mb 56f 55f
1:00 0.3ft 2s 4 7 mph 1017.6mb 56f 54f
12:00 0.3ft 2s  -  mph 1018.1mb 55f 55f
11:00 0.7ft 3s  -  mph 1018.3mb 54f 56f
10:00 0.7ft 3s 2 4 mph 1018.3mb 52f 53f
9:00 0.7ft 3s 2
mph
1018.3mb 51f 52f
8:00 0.7ft 3s 7
mph
1018mb 51f 52f
7:00 0.7ft 3s 4 7 mph 1017.9mb 51f 51f
6:00 0.7ft 3s 7 9 mph 1017.7mb 51f 51f
5:00 0.7ft 3s 9 11 mph 1017.7mb 51f 51f
4:00 1ft 2s 11 13 mph 1018.1mb 51f 51f
3:00 0.7ft 2s 9 11 mph 1018.4mb 51f 51f
2:00 1ft 2s 11 13 mph 1018.6mb 51f 51f
1:00 0.7ft 2s 13 16 mph 1018.9mb 51f 52f
12:00 1ft 2s 13 16 mph 1019.2mb 51f 52f
jue 04/30 11:00 1ft 3s 13 16 mph 1019.7mb 51f 52f
10:00 1ft 2s 13 18 mph 1020.1mb 51f 52f
9:00 1ft 2s 13 18 mph 1020.5mb 51f 53f
8:00 1.3ft 3s 11 16 mph 1020.5mb 51f 52f
7:00 1.6ft 3s 16 20 mph 1020.3mb 51f 52f
6:00 1.6ft 3s 16 20 mph 1021.3mb 51f 52f
5:00 1.6ft 4s 18 20 mph 1021.8mb 51f 53f
3:00 1.6ft 3s 16 18 mph 1023.7mb 51f 53f
2:00 1.6ft 3s 18 20 mph 1024.3mb 51f 53f
1:00 1.6ft 3s 18 22 mph 1024.6mb 52f 53f
12:00 1.6ft 3s 18 20 mph 1025.1mb 51f 52f
11:00 1.6ft 3s 18 20 mph 1025.1mb 52f 52f
10:00 1.3ft 2s 16 18 mph 1025mb 52f 52f
9:00 0.7ft 2s 16 18 mph 1025mb 52f 52f
8:00 0.7ft 4s 11 13 mph 1025mb 52f 52f
7:00 0.3ft 2s 9 11 mph 1024.6mb 52f 51f
6:00 0.7ft 3s 4 7 mph 1024.4mb 52f 52f
5:00 0.3ft 3s 4
mph
1024.5mb 52f 51f
4:00 0.7ft 3s 4 7 mph 1024.5mb 52f 52f
3:00 0.7ft 3s 2 4 mph 1024.3mb 52f 52f
2:00 0.7ft 3s 7 9 mph 1024mb 52f 52f
1:00 0.3ft 2s 9 11 mph 1023.9mb 52f 52f
12:00 0.7ft 2s 9 11 mph 1023.5mb 52f 53f
mié 04/29 11:00 0.7ft 2s 7 9 mph 1023.4mb 52f 52f
10:00 0.7ft 2s 9 11 mph 1023mb 52f 52f
9:00 1ft 2s 11 13 mph 1022.8mb 52f 53f
8:00 1ft 2s 11 16 mph 1022.3mb 52f 54f
7:00 1.3ft 3s 13 16 mph 1022.1mb 53f 55f
6:00 1.6ft 3s 11 13 mph 1022.2mb 53f 55f
5:00 1.3ft 3s 13 18 mph 1022.6mb 53f 54f
4:00 1.3ft 3s 13 16 mph 1022.7mb 54f 55f
3:00 1ft 2s 18 22 mph 1022.8mb 54f 54f
2:00 1.3ft 2s 16 18 mph 1022.9mb 54f 54f
1:00 0.7ft 2s 16 18 mph 1023.4mb 54f 53f